<?xml version="1.0" encoding="UTF-8" standalone="no" ?>
<gpx xmlns="http://www.topografix.com/GPX/1/1" xmlns:xsi="http://www.w3.org/2001/XMLSchema-instance" xsi:schemaLocation="http://www.topografix.com/GPX/1/1 http://www.topografix.com/GPX/1/1/gpx.xsd" version="1.1" creator="VisuGPX - https://www.visugpx.com">
  <metadata>
    <name>Côte Rotte-Maroux-Le Champ des Pins (Drôme)</name>
    <desc><![CDATA[Randonnée peu difficile au départ de Saint-Vincent-la-Commanderie]]></desc>
  </metadata>
  <trk>
    <name><![CDATA[Le Champ des Pins - PD-]]></name>
    <trkseg>
      <trkpt lat="44.93862" lon="5.11635">
        <ele>372</ele>
        <time>2020-08-27T10:19:03.22Z</time>
      </trkpt>
      <trkpt lat="44.93854" lon="5.11632">
        <ele>373</ele>
        <time>2020-08-27T10:19:12.27Z</time>
      </trkpt>
      <trkpt lat="44.9385" lon="5.11692">
        <ele>376</ele>
        <time>2020-08-27T10:19:52.06Z</time>
      </trkpt>
      <trkpt lat="44.9386" lon="5.1173">
        <ele>376</ele>
        <time>2020-08-27T10:20:15.25Z</time>
      </trkpt>
      <trkpt lat="44.93843" lon="5.11743">
        <ele>376</ele>
        <time>2020-08-27T10:20:30.83Z</time>
      </trkpt>
      <trkpt lat="44.93816" lon="5.11739">
        <ele>375</ele>
        <time>2020-08-27T10:20:52.23Z</time>
      </trkpt>
      <trkpt lat="44.93799" lon="5.1174">
        <ele>375</ele>
        <time>2020-08-27T10:21:06.07Z</time>
      </trkpt>
      <trkpt lat="44.93791" lon="5.11745">
        <ele>375</ele>
        <time>2020-08-27T10:21:12.91Z</time>
      </trkpt>
      <trkpt lat="44.9378" lon="5.11767">
        <ele>375</ele>
        <time>2020-08-27T10:21:30.69Z</time>
      </trkpt>
      <trkpt lat="44.93776" lon="5.11787">
        <ele>375</ele>
        <time>2020-08-27T10:21:44.43Z</time>
      </trkpt>
      <trkpt lat="44.93711" lon="5.11899">
        <ele>381</ele>
        <time>2020-08-27T10:23:24.02Z</time>
      </trkpt>
      <trkpt lat="44.93673" lon="5.11894">
        <ele>383</ele>
        <time>2020-08-27T10:24:01.38Z</time>
      </trkpt>
      <trkpt lat="44.93653" lon="5.11898">
        <ele>385</ele>
        <time>2020-08-27T10:24:21.58Z</time>
      </trkpt>
      <trkpt lat="44.93646" lon="5.11904">
        <ele>385</ele>
        <time>2020-08-27T10:24:29.80Z</time>
      </trkpt>
      <trkpt lat="44.9363" lon="5.11935">
        <ele>387</ele>
        <time>2020-08-27T10:24:58.61Z</time>
      </trkpt>
      <trkpt lat="44.93623" lon="5.11943">
        <ele>388</ele>
        <time>2020-08-27T10:25:07.53Z</time>
      </trkpt>
      <trkpt lat="44.93584" lon="5.11968">
        <ele>391</ele>
        <time>2020-08-27T10:25:51.99Z</time>
      </trkpt>
      <trkpt lat="44.93562" lon="5.11988">
        <ele>393</ele>
        <time>2020-08-27T10:26:18.29Z</time>
      </trkpt>
      <trkpt lat="44.93543" lon="5.12022">
        <ele>395</ele>
        <time>2020-08-27T10:26:51.29Z</time>
      </trkpt>
      <trkpt lat="44.93542" lon="5.12031">
        <ele>396</ele>
        <time>2020-08-27T10:26:58.48Z</time>
      </trkpt>
      <trkpt lat="44.93504" lon="5.12047">
        <ele>399</ele>
        <time>2020-08-27T10:27:42.98Z</time>
      </trkpt>
      <trkpt lat="44.9349" lon="5.12064">
        <ele>401</ele>
        <time>2020-08-27T10:28:04.71Z</time>
      </trkpt>
      <trkpt lat="44.93479" lon="5.1207">
        <ele>402</ele>
        <time>2020-08-27T10:28:19.10Z</time>
      </trkpt>
      <trkpt lat="44.9343" lon="5.12082">
        <ele>407</ele>
        <time>2020-08-27T10:29:18.12Z</time>
      </trkpt>
      <trkpt lat="44.93342" lon="5.12145">
        <ele>416</ele>
        <time>2020-08-27T10:31:18.79Z</time>
      </trkpt>
      <trkpt lat="44.93334" lon="5.12157">
        <ele>417</ele>
        <time>2020-08-27T10:31:32.87Z</time>
      </trkpt>
      <trkpt lat="44.93331" lon="5.12188">
        <ele>420</ele>
        <time>2020-08-27T10:32:07.50Z</time>
      </trkpt>
      <trkpt lat="44.93332" lon="5.12208">
        <ele>422</ele>
        <time>2020-08-27T10:32:30.89Z</time>
      </trkpt>
      <trkpt lat="44.93379" lon="5.1225">
        <ele>431</ele>
        <time>2020-08-27T10:34:12.37Z</time>
      </trkpt>
      <trkpt lat="44.93388" lon="5.12262">
        <ele>434</ele>
        <time>2020-08-27T10:34:37.01Z</time>
      </trkpt>
      <trkpt lat="44.93395" lon="5.1228">
        <ele>437</ele>
        <time>2020-08-27T10:35:09.31Z</time>
      </trkpt>
      <trkpt lat="44.93399" lon="5.1231">
        <ele>442</ele>
        <time>2020-08-27T10:36:05.67Z</time>
      </trkpt>
      <trkpt lat="44.93408" lon="5.12334">
        <ele>447</ele>
        <time>2020-08-27T10:36:59.30Z</time>
      </trkpt>
      <trkpt lat="44.93462" lon="5.12402">
        <ele>469</ele>
        <time>2020-08-27T10:40:48.77Z</time>
      </trkpt>
      <trkpt lat="44.93465" lon="5.12411">
        <ele>472</ele>
        <time>2020-08-27T10:41:10.61Z</time>
      </trkpt>
      <trkpt lat="44.93463" lon="5.1243">
        <ele>476</ele>
        <time>2020-08-27T10:41:54.02Z</time>
      </trkpt>
      <trkpt lat="44.93415" lon="5.12456">
        <ele>495</ele>
        <time>2020-08-27T10:44:50.99Z</time>
      </trkpt>
      <trkpt lat="44.93405" lon="5.12458">
        <ele>499</ele>
        <time>2020-08-27T10:45:25.21Z</time>
      </trkpt>
      <trkpt lat="44.93395" lon="5.12449">
        <ele>503</ele>
        <time>2020-08-27T10:46:03.50Z</time>
      </trkpt>
      <trkpt lat="44.9337" lon="5.12445">
        <ele>511</ele>
        <time>2020-08-27T10:47:19.07Z</time>
      </trkpt>
      <trkpt lat="44.93367" lon="5.12448">
        <ele>512</ele>
        <time>2020-08-27T10:47:28.50Z</time>
      </trkpt>
      <trkpt lat="44.93371" lon="5.12469">
        <ele>517</ele>
        <time>2020-08-27T10:48:12.94Z</time>
      </trkpt>
      <trkpt lat="44.93352" lon="5.12481">
        <ele>523</ele>
        <time>2020-08-27T10:49:11.26Z</time>
      </trkpt>
      <trkpt lat="44.93324" lon="5.1246">
        <ele>532</ele>
        <time>2020-08-27T10:50:31.54Z</time>
      </trkpt>
      <trkpt lat="44.93322" lon="5.12466">
        <ele>533</ele>
        <time>2020-08-27T10:50:41.88Z</time>
      </trkpt>
      <trkpt lat="44.9333" lon="5.12493">
        <ele>538</ele>
        <time>2020-08-27T10:51:23.24Z</time>
      </trkpt>
      <trkpt lat="44.93343" lon="5.12508">
        <ele>541</ele>
        <time>2020-08-27T10:51:53.94Z</time>
      </trkpt>
      <trkpt lat="44.93346" lon="5.12518">
        <ele>542</ele>
        <time>2020-08-27T10:52:08.22Z</time>
      </trkpt>
      <trkpt lat="44.93335" lon="5.12547">
        <ele>546</ele>
        <time>2020-08-27T10:52:38.96Z</time>
      </trkpt>
      <trkpt lat="44.93332" lon="5.12563">
        <ele>548</ele>
        <time>2020-08-27T10:52:54.05Z</time>
      </trkpt>
      <trkpt lat="44.93329" lon="5.12567">
        <ele>548</ele>
        <time>2020-08-27T10:53:00.56Z</time>
      </trkpt>
      <trkpt lat="44.9328" lon="5.12577">
        <ele>552</ele>
        <time>2020-08-27T10:53:50.62Z</time>
      </trkpt>
      <trkpt lat="44.93265" lon="5.12594">
        <ele>553</ele>
        <time>2020-08-27T10:54:08.29Z</time>
      </trkpt>
      <trkpt lat="44.93255" lon="5.12615">
        <ele>554</ele>
        <time>2020-08-27T10:54:23.71Z</time>
      </trkpt>
      <trkpt lat="44.93248" lon="5.12691">
        <ele>554</ele>
        <time>2020-08-27T10:55:07.27Z</time>
      </trkpt>
      <trkpt lat="44.9323" lon="5.12731">
        <ele>553</ele>
        <time>2020-08-27T10:55:34.08Z</time>
      </trkpt>
      <trkpt lat="44.93226" lon="5.12748">
        <ele>553</ele>
        <time>2020-08-27T10:55:44.35Z</time>
      </trkpt>
      <trkpt lat="44.93227" lon="5.12797">
        <ele>552</ele>
        <time>2020-08-27T10:56:14.19Z</time>
      </trkpt>
      <trkpt lat="44.93223" lon="5.1281">
        <ele>552</ele>
        <time>2020-08-27T10:56:22.85Z</time>
      </trkpt>
      <trkpt lat="44.93165" lon="5.12832">
        <ele>555</ele>
        <time>2020-08-27T10:57:34.52Z</time>
      </trkpt>
      <trkpt lat="44.93146" lon="5.12844">
        <ele>557</ele>
        <time>2020-08-27T10:58:00.61Z</time>
      </trkpt>
      <trkpt lat="44.93102" lon="5.12889">
        <ele>565</ele>
        <time>2020-08-27T10:59:33.90Z</time>
      </trkpt>
      <trkpt lat="44.93083" lon="5.1292">
        <ele>571</ele>
        <time>2020-08-27T11:00:32.88Z</time>
      </trkpt>
      <trkpt lat="44.93075" lon="5.12952">
        <ele>576</ele>
        <time>2020-08-27T11:01:13.76Z</time>
      </trkpt>
      <trkpt lat="44.93069" lon="5.13081">
        <ele>590</ele>
        <time>2020-08-27T11:03:35.05Z</time>
      </trkpt>
      <trkpt lat="44.93059" lon="5.13118">
        <ele>593</ele>
        <time>2020-08-27T11:04:11.30Z</time>
      </trkpt>
      <trkpt lat="44.93051" lon="5.1313">
        <ele>594</ele>
        <time>2020-08-27T11:04:27.01Z</time>
      </trkpt>
      <trkpt lat="44.9303" lon="5.1315">
        <ele>597</ele>
        <time>2020-08-27T11:04:58.56Z</time>
      </trkpt>
      <trkpt lat="44.93021" lon="5.13193">
        <ele>600</ele>
        <time>2020-08-27T11:05:44.32Z</time>
      </trkpt>
      <trkpt lat="44.93015" lon="5.13201">
        <ele>601</ele>
        <time>2020-08-27T11:05:55.77Z</time>
      </trkpt>
      <trkpt lat="44.92953" lon="5.13203">
        <ele>610</ele>
        <time>2020-08-27T11:07:23.18Z</time>
      </trkpt>
      <trkpt lat="44.92886" lon="5.1318">
        <ele>617</ele>
        <time>2020-08-27T11:08:37.86Z</time>
      </trkpt>
      <trkpt lat="44.92881" lon="5.13173">
        <ele>617</ele>
        <time>2020-08-27T11:08:45.13Z</time>
      </trkpt>
      <trkpt lat="44.92876" lon="5.13143">
        <ele>618</ele>
        <time>2020-08-27T11:09:02.69Z</time>
      </trkpt>
      <trkpt lat="44.92856" lon="5.13106">
        <ele>616</ele>
        <time>2020-08-27T11:09:32.67Z</time>
      </trkpt>
      <trkpt lat="44.92849" lon="5.13099">
        <ele>615</ele>
        <time>2020-08-27T11:09:39.54Z</time>
      </trkpt>
      <trkpt lat="44.92826" lon="5.13092">
        <ele>612</ele>
        <time>2020-08-27T11:10:06.53Z</time>
      </trkpt>
      <trkpt lat="44.92817" lon="5.13091">
        <ele>610</ele>
        <time>2020-08-27T11:10:16.62Z</time>
      </trkpt>
      <trkpt lat="44.9279" lon="5.13097">
        <ele>607</ele>
        <time>2020-08-27T11:10:45.01Z</time>
      </trkpt>
      <trkpt lat="44.92748" lon="5.13114">
        <ele>601</ele>
        <time>2020-08-27T11:11:24.48Z</time>
      </trkpt>
      <trkpt lat="44.92716" lon="5.13134">
        <ele>600</ele>
        <time>2020-08-27T11:11:54.72Z</time>
      </trkpt>
      <trkpt lat="44.92705" lon="5.13137">
        <ele>600</ele>
        <time>2020-08-27T11:12:04.51Z</time>
      </trkpt>
      <trkpt lat="44.92695" lon="5.13135">
        <ele>600</ele>
        <time>2020-08-27T11:12:12.69Z</time>
      </trkpt>
      <trkpt lat="44.92634" lon="5.1305">
        <ele>604</ele>
        <time>2020-08-27T11:13:32.02Z</time>
      </trkpt>
      <trkpt lat="44.92616" lon="5.13011">
        <ele>605</ele>
        <time>2020-08-27T11:13:58.34Z</time>
      </trkpt>
      <trkpt lat="44.92601" lon="5.12964">
        <ele>604</ele>
        <time>2020-08-27T11:14:29.04Z</time>
      </trkpt>
      <trkpt lat="44.92587" lon="5.12866">
        <ele>598</ele>
        <time>2020-08-27T11:15:37.96Z</time>
      </trkpt>
      <trkpt lat="44.92577" lon="5.12869">
        <ele>596</ele>
        <time>2020-08-27T11:15:50.60Z</time>
      </trkpt>
      <trkpt lat="44.92562" lon="5.12881">
        <ele>593</ele>
        <time>2020-08-27T11:16:18.73Z</time>
      </trkpt>
      <trkpt lat="44.92515" lon="5.12926">
        <ele>580</ele>
        <time>2020-08-27T11:18:00.25Z</time>
      </trkpt>
      <trkpt lat="44.92453" lon="5.12932">
        <ele>564</ele>
        <time>2020-08-27T11:19:52.47Z</time>
      </trkpt>
      <trkpt lat="44.92439" lon="5.12939">
        <ele>561</ele>
        <time>2020-08-27T11:20:17.54Z</time>
      </trkpt>
      <trkpt lat="44.92435" lon="5.12955">
        <ele>558</ele>
        <time>2020-08-27T11:20:36.51Z</time>
      </trkpt>
      <trkpt lat="44.92435" lon="5.13041">
        <ele>546</ele>
        <time>2020-08-27T11:21:59.33Z</time>
      </trkpt>
      <trkpt lat="44.92439" lon="5.13101">
        <ele>540</ele>
        <time>2020-08-27T11:22:42.29Z</time>
      </trkpt>
      <trkpt lat="44.92438" lon="5.13173">
        <ele>535</ele>
        <time>2020-08-27T11:23:27.73Z</time>
      </trkpt>
      <trkpt lat="44.92442" lon="5.13214">
        <ele>533</ele>
        <time>2020-08-27T11:23:52.29Z</time>
      </trkpt>
      <trkpt lat="44.92438" lon="5.13254">
        <ele>531</ele>
        <time>2020-08-27T11:24:15.03Z</time>
      </trkpt>
      <trkpt lat="44.92421" lon="5.13306">
        <ele>530</ele>
        <time>2020-08-27T11:24:47.69Z</time>
      </trkpt>
      <trkpt lat="44.92393" lon="5.13443">
        <ele>531</ele>
        <time>2020-08-27T11:26:16.76Z</time>
      </trkpt>
      <trkpt lat="44.92393" lon="5.13451">
        <ele>532</ele>
        <time>2020-08-27T11:26:22.24Z</time>
      </trkpt>
      <trkpt lat="44.92397" lon="5.13458">
        <ele>532</ele>
        <time>2020-08-27T11:26:27.59Z</time>
      </trkpt>
      <trkpt lat="44.92386" lon="5.13506">
        <ele>534</ele>
        <time>2020-08-27T11:27:05.20Z</time>
      </trkpt>
      <trkpt lat="44.92354" lon="5.13592">
        <ele>540</ele>
        <time>2020-08-27T11:28:21.09Z</time>
      </trkpt>
      <trkpt lat="44.92314" lon="5.13665">
        <ele>545</ele>
        <time>2020-08-27T11:29:35.47Z</time>
      </trkpt>
      <trkpt lat="44.92279" lon="5.13753">
        <ele>552</ele>
        <time>2020-08-27T11:31:04.97Z</time>
      </trkpt>
      <trkpt lat="44.92264" lon="5.13783">
        <ele>555</ele>
        <time>2020-08-27T11:31:44.01Z</time>
      </trkpt>
      <trkpt lat="44.92236" lon="5.13822">
        <ele>561</ele>
        <time>2020-08-27T11:32:50.57Z</time>
      </trkpt>
      <trkpt lat="44.92212" lon="5.13844">
        <ele>566</ele>
        <time>2020-08-27T11:33:41.77Z</time>
      </trkpt>
      <trkpt lat="44.92181" lon="5.13893">
        <ele>574</ele>
        <time>2020-08-27T11:35:04.10Z</time>
      </trkpt>
      <trkpt lat="44.92146" lon="5.13935">
        <ele>582</ele>
        <time>2020-08-27T11:36:18.16Z</time>
      </trkpt>
      <trkpt lat="44.92051" lon="5.13998">
        <ele>597</ele>
        <time>2020-08-27T11:39:06.56Z</time>
      </trkpt>
      <trkpt lat="44.91991" lon="5.14011">
        <ele>607</ele>
        <time>2020-08-27T11:40:59.02Z</time>
      </trkpt>
      <trkpt lat="44.91911" lon="5.14037">
        <ele>623</ele>
        <time>2020-08-27T11:43:34.01Z</time>
      </trkpt>
      <trkpt lat="44.91882" lon="5.14063">
        <ele>629</ele>
        <time>2020-08-27T11:44:30.95Z</time>
      </trkpt>
      <trkpt lat="44.91872" lon="5.14083">
        <ele>632</ele>
        <time>2020-08-27T11:45:00.09Z</time>
      </trkpt>
      <trkpt lat="44.91837" lon="5.14173">
        <ele>643</ele>
        <time>2020-08-27T11:46:44.57Z</time>
      </trkpt>
      <trkpt lat="44.91808" lon="5.14222">
        <ele>647</ele>
        <time>2020-08-27T11:47:33.29Z</time>
      </trkpt>
      <trkpt lat="44.91804" lon="5.14232">
        <ele>648</ele>
        <time>2020-08-27T11:47:41.62Z</time>
      </trkpt>
      <trkpt lat="44.91804" lon="5.1424">
        <ele>648</ele>
        <time>2020-08-27T11:47:47.88Z</time>
      </trkpt>
      <trkpt lat="44.91807" lon="5.14245">
        <ele>649</ele>
        <time>2020-08-27T11:47:52.77Z</time>
      </trkpt>
      <trkpt lat="44.91819" lon="5.14247">
        <ele>649</ele>
        <time>2020-08-27T11:48:04.85Z</time>
      </trkpt>
      <trkpt lat="44.91851" lon="5.1425">
        <ele>651</ele>
        <time>2020-08-27T11:48:34.29Z</time>
      </trkpt>
      <trkpt lat="44.91889" lon="5.14246">
        <ele>652</ele>
        <time>2020-08-27T11:49:08.68Z</time>
      </trkpt>
      <trkpt lat="44.91911" lon="5.14253">
        <ele>653</ele>
        <time>2020-08-27T11:49:27.98Z</time>
      </trkpt>
      <trkpt lat="44.9192" lon="5.14262">
        <ele>653</ele>
        <time>2020-08-27T11:49:36.78Z</time>
      </trkpt>
      <trkpt lat="44.91931" lon="5.14285">
        <ele>653</ele>
        <time>2020-08-27T11:49:52.47Z</time>
      </trkpt>
      <trkpt lat="44.91941" lon="5.14334">
        <ele>653</ele>
        <time>2020-08-27T11:50:21.63Z</time>
      </trkpt>
      <trkpt lat="44.91942" lon="5.14374">
        <ele>653</ele>
        <time>2020-08-27T11:50:44.47Z</time>
      </trkpt>
      <trkpt lat="44.91938" lon="5.14414">
        <ele>653</ele>
        <time>2020-08-27T11:51:08.41Z</time>
      </trkpt>
      <trkpt lat="44.91902" lon="5.1451">
        <ele>654</ele>
        <time>2020-08-27T11:52:20.52Z</time>
      </trkpt>
      <trkpt lat="44.91898" lon="5.14535">
        <ele>656</ele>
        <time>2020-08-27T11:52:38.54Z</time>
      </trkpt>
      <trkpt lat="44.91888" lon="5.14554">
        <ele>658</ele>
        <time>2020-08-27T11:53:00.37Z</time>
      </trkpt>
      <trkpt lat="44.91865" lon="5.14572">
        <ele>661</ele>
        <time>2020-08-27T11:53:43.27Z</time>
      </trkpt>
      <trkpt lat="44.91855" lon="5.14587">
        <ele>664</ele>
        <time>2020-08-27T11:54:08.83Z</time>
      </trkpt>
      <trkpt lat="44.91855" lon="5.14593">
        <ele>664</ele>
        <time>2020-08-27T11:54:16.49Z</time>
      </trkpt>
      <trkpt lat="44.91861" lon="5.14598">
        <ele>666</ele>
        <time>2020-08-27T11:54:29.42Z</time>
      </trkpt>
      <trkpt lat="44.91903" lon="5.14605">
        <ele>674</ele>
        <time>2020-08-27T11:55:52.87Z</time>
      </trkpt>
      <trkpt lat="44.91923" lon="5.14615">
        <ele>679</ele>
        <time>2020-08-27T11:56:35.15Z</time>
      </trkpt>
      <trkpt lat="44.91935" lon="5.14631">
        <ele>682</ele>
        <time>2020-08-27T11:57:08.35Z</time>
      </trkpt>
      <trkpt lat="44.91945" lon="5.1467">
        <ele>688</ele>
        <time>2020-08-27T11:57:59.57Z</time>
      </trkpt>
      <trkpt lat="44.91947" lon="5.14701">
        <ele>691</ele>
        <time>2020-08-27T11:58:33.51Z</time>
      </trkpt>
      <trkpt lat="44.91944" lon="5.14728">
        <ele>694</ele>
        <time>2020-08-27T11:59:01.16Z</time>
      </trkpt>
      <trkpt lat="44.91904" lon="5.14858">
        <ele>706</ele>
        <time>2020-08-27T12:01:36.42Z</time>
      </trkpt>
      <trkpt lat="44.91889" lon="5.14962">
        <ele>719</ele>
        <time>2020-08-27T12:03:53.92Z</time>
      </trkpt>
      <trkpt lat="44.91893" lon="5.15011">
        <ele>726</ele>
        <time>2020-08-27T12:05:00.22Z</time>
      </trkpt>
      <trkpt lat="44.91902" lon="5.15038">
        <ele>730</ele>
        <time>2020-08-27T12:05:40.30Z</time>
      </trkpt>
      <trkpt lat="44.9193" lon="5.15075">
        <ele>737</ele>
        <time>2020-08-27T12:06:43.94Z</time>
      </trkpt>
      <trkpt lat="44.91938" lon="5.1511">
        <ele>740</ele>
        <time>2020-08-27T12:07:15.66Z</time>
      </trkpt>
      <trkpt lat="44.9196" lon="5.15178">
        <ele>745</ele>
        <time>2020-08-27T12:08:11.73Z</time>
      </trkpt>
      <trkpt lat="44.9199" lon="5.15239">
        <ele>748</ele>
        <time>2020-08-27T12:08:58.57Z</time>
      </trkpt>
      <trkpt lat="44.92031" lon="5.15203">
        <ele>748</ele>
        <time>2020-08-27T12:09:38.76Z</time>
      </trkpt>
      <trkpt lat="44.92077" lon="5.15121">
        <ele>749</ele>
        <time>2020-08-27T12:10:46.80Z</time>
      </trkpt>
      <trkpt lat="44.92116" lon="5.15074">
        <ele>753</ele>
        <time>2020-08-27T12:12:03.21Z</time>
      </trkpt>
      <trkpt lat="44.92113" lon="5.15082">
        <ele>754</ele>
        <time>2020-08-27T12:12:13.33Z</time>
      </trkpt>
      <trkpt lat="44.9211" lon="5.15136">
        <ele>762</ele>
        <time>2020-08-27T12:13:36.87Z</time>
      </trkpt>
      <trkpt lat="44.92112" lon="5.15181">
        <ele>770</ele>
        <time>2020-08-27T12:14:57.23Z</time>
      </trkpt>
      <trkpt lat="44.92121" lon="5.15232">
        <ele>780</ele>
        <time>2020-08-27T12:16:17.09Z</time>
      </trkpt>
      <trkpt lat="44.92119" lon="5.15247">
        <ele>782</ele>
        <time>2020-08-27T12:16:40.12Z</time>
      </trkpt>
      <trkpt lat="44.92085" lon="5.15307">
        <ele>793</ele>
        <time>2020-08-27T12:18:05.69Z</time>
      </trkpt>
      <trkpt lat="44.92064" lon="5.15389">
        <ele>799</ele>
        <time>2020-08-27T12:19:05.63Z</time>
      </trkpt>
      <trkpt lat="44.92075" lon="5.15407">
        <ele>799</ele>
        <time>2020-08-27T12:19:21.70Z</time>
      </trkpt>
      <trkpt lat="44.92116" lon="5.15447">
        <ele>800</ele>
        <time>2020-08-27T12:20:02.08Z</time>
      </trkpt>
      <trkpt lat="44.92138" lon="5.15482">
        <ele>799</ele>
        <time>2020-08-27T12:20:28.51Z</time>
      </trkpt>
      <trkpt lat="44.92178" lon="5.15522">
        <ele>798</ele>
        <time>2020-08-27T12:21:07.64Z</time>
      </trkpt>
      <trkpt lat="44.92193" lon="5.15567">
        <ele>797</ele>
        <time>2020-08-27T12:21:36.67Z</time>
      </trkpt>
      <trkpt lat="44.92199" lon="5.15655">
        <ele>792</ele>
        <time>2020-08-27T12:22:30.70Z</time>
      </trkpt>
      <trkpt lat="44.92208" lon="5.15669">
        <ele>791</ele>
        <time>2020-08-27T12:22:42.10Z</time>
      </trkpt>
      <trkpt lat="44.92243" lon="5.15654">
        <ele>788</ele>
        <time>2020-08-27T12:23:14.93Z</time>
      </trkpt>
      <trkpt lat="44.92269" lon="5.15633">
        <ele>785</ele>
        <time>2020-08-27T12:23:39.15Z</time>
      </trkpt>
      <trkpt lat="44.92342" lon="5.15573">
        <ele>782</ele>
        <time>2020-08-27T12:24:46.31Z</time>
      </trkpt>
      <trkpt lat="44.92366" lon="5.15541">
        <ele>784</ele>
        <time>2020-08-27T12:25:21.78Z</time>
      </trkpt>
      <trkpt lat="44.92384" lon="5.15527">
        <ele>785</ele>
        <time>2020-08-27T12:25:44.39Z</time>
      </trkpt>
      <trkpt lat="44.92484" lon="5.15513">
        <ele>794</ele>
        <time>2020-08-27T12:27:41.98Z</time>
      </trkpt>
      <trkpt lat="44.92508" lon="5.15489">
        <ele>797</ele>
        <time>2020-08-27T12:28:16.06Z</time>
      </trkpt>
      <trkpt lat="44.92543" lon="5.15417">
        <ele>802</ele>
        <time>2020-08-27T12:29:16.27Z</time>
      </trkpt>
      <trkpt lat="44.9261" lon="5.15334">
        <ele>806</ele>
        <time>2020-08-27T12:30:33.86Z</time>
      </trkpt>
      <trkpt lat="44.92619" lon="5.1533">
        <ele>806</ele>
        <time>2020-08-27T12:30:41.95Z</time>
      </trkpt>
      <trkpt lat="44.9265" lon="5.15328">
        <ele>805</ele>
        <time>2020-08-27T12:31:09.29Z</time>
      </trkpt>
      <trkpt lat="44.92662" lon="5.15316">
        <ele>804</ele>
        <time>2020-08-27T12:31:21.62Z</time>
      </trkpt>
      <trkpt lat="44.92711" lon="5.1529">
        <ele>798</ele>
        <time>2020-08-27T12:32:35.76Z</time>
      </trkpt>
      <trkpt lat="44.92784" lon="5.15245">
        <ele>780</ele>
        <time>2020-08-27T12:34:52.43Z</time>
      </trkpt>
      <trkpt lat="44.92816" lon="5.15209">
        <ele>770</ele>
        <time>2020-08-27T12:36:04.70Z</time>
      </trkpt>
      <trkpt lat="44.9283" lon="5.15177">
        <ele>764</ele>
        <time>2020-08-27T12:36:42.94Z</time>
      </trkpt>
      <trkpt lat="44.92842" lon="5.15168">
        <ele>761</ele>
        <time>2020-08-27T12:37:02.03Z</time>
      </trkpt>
      <trkpt lat="44.92889" lon="5.15095">
        <ele>749</ele>
        <time>2020-08-27T12:38:16.34Z</time>
      </trkpt>
      <trkpt lat="44.9296" lon="5.15034">
        <ele>742</ele>
        <time>2020-08-27T12:39:22.70Z</time>
      </trkpt>
      <trkpt lat="44.93043" lon="5.14935">
        <ele>742</ele>
        <time>2020-08-27T12:40:51.91Z</time>
      </trkpt>
      <trkpt lat="44.93064" lon="5.14902">
        <ele>743</ele>
        <time>2020-08-27T12:41:17.89Z</time>
      </trkpt>
      <trkpt lat="44.93113" lon="5.14836">
        <ele>743</ele>
        <time>2020-08-27T12:42:12.28Z</time>
      </trkpt>
      <trkpt lat="44.9316" lon="5.14759">
        <ele>742</ele>
        <time>2020-08-27T12:43:10.03Z</time>
      </trkpt>
      <trkpt lat="44.93219" lon="5.14737">
        <ele>739</ele>
        <time>2020-08-27T12:44:01.46Z</time>
      </trkpt>
      <trkpt lat="44.93309" lon="5.14719">
        <ele>731</ele>
        <time>2020-08-27T12:45:36.09Z</time>
      </trkpt>
      <trkpt lat="44.93369" lon="5.14684">
        <ele>720</ele>
        <time>2020-08-27T12:47:10.92Z</time>
      </trkpt>
      <trkpt lat="44.93431" lon="5.14633">
        <ele>705</ele>
        <time>2020-08-27T12:48:55.28Z</time>
      </trkpt>
      <trkpt lat="44.93483" lon="5.14606">
        <ele>696</ele>
        <time>2020-08-27T12:49:50.26Z</time>
      </trkpt>
      <trkpt lat="44.93649" lon="5.14556">
        <ele>679</ele>
        <time>2020-08-27T12:52:32.89Z</time>
      </trkpt>
      <trkpt lat="44.93654" lon="5.14549">
        <ele>678</ele>
        <time>2020-08-27T12:52:39.19Z</time>
      </trkpt>
      <trkpt lat="44.93673" lon="5.14493">
        <ele>672</ele>
        <time>2020-08-27T12:53:32.32Z</time>
      </trkpt>
      <trkpt lat="44.9373" lon="5.14422">
        <ele>660</ele>
        <time>2020-08-27T12:55:04.75Z</time>
      </trkpt>
      <trkpt lat="44.93746" lon="5.14415">
        <ele>657</ele>
        <time>2020-08-27T12:55:24.07Z</time>
      </trkpt>
      <trkpt lat="44.9375" lon="5.14409">
        <ele>657</ele>
        <time>2020-08-27T12:55:31.30Z</time>
      </trkpt>
      <trkpt lat="44.93753" lon="5.14369">
        <ele>653</ele>
        <time>2020-08-27T12:55:58.62Z</time>
      </trkpt>
      <trkpt lat="44.93767" lon="5.14322">
        <ele>650</ele>
        <time>2020-08-27T12:56:31.55Z</time>
      </trkpt>
      <trkpt lat="44.93779" lon="5.14308">
        <ele>648</ele>
        <time>2020-08-27T12:56:45.04Z</time>
      </trkpt>
      <trkpt lat="44.938" lon="5.14295">
        <ele>646</ele>
        <time>2020-08-27T12:57:05.15Z</time>
      </trkpt>
      <trkpt lat="44.93815" lon="5.1427">
        <ele>644</ele>
        <time>2020-08-27T12:57:26.82Z</time>
      </trkpt>
      <trkpt lat="44.93817" lon="5.14205">
        <ele>639</ele>
        <time>2020-08-27T12:58:11.13Z</time>
      </trkpt>
      <trkpt lat="44.93813" lon="5.14168">
        <ele>636</ele>
        <time>2020-08-27T12:58:38.45Z</time>
      </trkpt>
      <trkpt lat="44.93812" lon="5.14101">
        <ele>630</ele>
        <time>2020-08-27T12:59:27.56Z</time>
      </trkpt>
      <trkpt lat="44.93819" lon="5.14064">
        <ele>627</ele>
        <time>2020-08-27T12:59:54.45Z</time>
      </trkpt>
      <trkpt lat="44.93829" lon="5.14031">
        <ele>624</ele>
        <time>2020-08-27T13:00:18.32Z</time>
      </trkpt>
      <trkpt lat="44.93831" lon="5.13972">
        <ele>620</ele>
        <time>2020-08-27T13:00:56.57Z</time>
      </trkpt>
      <trkpt lat="44.93881" lon="5.1391">
        <ele>613</ele>
        <time>2020-08-27T13:01:59.89Z</time>
      </trkpt>
      <trkpt lat="44.93891" lon="5.1389">
        <ele>611</ele>
        <time>2020-08-27T13:02:16.24Z</time>
      </trkpt>
      <trkpt lat="44.93902" lon="5.13854">
        <ele>608</ele>
        <time>2020-08-27T13:02:46.55Z</time>
      </trkpt>
      <trkpt lat="44.93906" lon="5.13818">
        <ele>604</ele>
        <time>2020-08-27T13:03:18.73Z</time>
      </trkpt>
      <trkpt lat="44.93904" lon="5.13792">
        <ele>601</ele>
        <time>2020-08-27T13:03:41.25Z</time>
      </trkpt>
      <trkpt lat="44.93875" lon="5.13698">
        <ele>590</ele>
        <time>2020-08-27T13:05:04.07Z</time>
      </trkpt>
      <trkpt lat="44.93867" lon="5.13628">
        <ele>584</ele>
        <time>2020-08-27T13:05:47.77Z</time>
      </trkpt>
      <trkpt lat="44.93847" lon="5.13543">
        <ele>581</ele>
        <time>2020-08-27T13:06:38.25Z</time>
      </trkpt>
      <trkpt lat="44.93842" lon="5.13509">
        <ele>580</ele>
        <time>2020-08-27T13:06:57.77Z</time>
      </trkpt>
      <trkpt lat="44.93841" lon="5.13457">
        <ele>579</ele>
        <time>2020-08-27T13:07:27.34Z</time>
      </trkpt>
      <trkpt lat="44.93849" lon="5.13426">
        <ele>577</ele>
        <time>2020-08-27T13:07:48.63Z</time>
      </trkpt>
      <trkpt lat="44.93883" lon="5.13385">
        <ele>573</ele>
        <time>2020-08-27T13:08:29.52Z</time>
      </trkpt>
      <trkpt lat="44.93912" lon="5.13361">
        <ele>569</ele>
        <time>2020-08-27T13:09:03.64Z</time>
      </trkpt>
      <trkpt lat="44.9393" lon="5.13352">
        <ele>567</ele>
        <time>2020-08-27T13:09:22.52Z</time>
      </trkpt>
      <trkpt lat="44.93963" lon="5.13318">
        <ele>562</ele>
        <time>2020-08-27T13:10:01.23Z</time>
      </trkpt>
      <trkpt lat="44.93986" lon="5.1328">
        <ele>559</ele>
        <time>2020-08-27T13:10:32.27Z</time>
      </trkpt>
      <trkpt lat="44.94006" lon="5.13257">
        <ele>557</ele>
        <time>2020-08-27T13:10:57.01Z</time>
      </trkpt>
      <trkpt lat="44.94013" lon="5.13254">
        <ele>556</ele>
        <time>2020-08-27T13:11:04.24Z</time>
      </trkpt>
      <trkpt lat="44.94026" lon="5.13256">
        <ele>555</ele>
        <time>2020-08-27T13:11:17.41Z</time>
      </trkpt>
      <trkpt lat="44.94116" lon="5.13298">
        <ele>543</ele>
        <time>2020-08-27T13:13:17.73Z</time>
      </trkpt>
      <trkpt lat="44.94137" lon="5.13303">
        <ele>538</ele>
        <time>2020-08-27T13:13:45.41Z</time>
      </trkpt>
      <trkpt lat="44.94165" lon="5.13301">
        <ele>532</ele>
        <time>2020-08-27T13:14:32.97Z</time>
      </trkpt>
      <trkpt lat="44.94181" lon="5.13286">
        <ele>527</ele>
        <time>2020-08-27T13:15:07.43Z</time>
      </trkpt>
      <trkpt lat="44.94189" lon="5.13284">
        <ele>525</ele>
        <time>2020-08-27T13:15:23.72Z</time>
      </trkpt>
      <trkpt lat="44.94207" lon="5.13293">
        <ele>520</ele>
        <time>2020-08-27T13:15:57.52Z</time>
      </trkpt>
      <trkpt lat="44.94231" lon="5.13292">
        <ele>514</ele>
        <time>2020-08-27T13:16:39Z</time>
      </trkpt>
      <trkpt lat="44.9424" lon="5.13286">
        <ele>512</ele>
        <time>2020-08-27T13:16:55.52Z</time>
      </trkpt>
      <trkpt lat="44.9425" lon="5.13264">
        <ele>508</ele>
        <time>2020-08-27T13:17:25.61Z</time>
      </trkpt>
      <trkpt lat="44.9427" lon="5.13269">
        <ele>503</ele>
        <time>2020-08-27T13:17:57.99Z</time>
      </trkpt>
      <trkpt lat="44.94291" lon="5.13262">
        <ele>499</ele>
        <time>2020-08-27T13:18:30.46Z</time>
      </trkpt>
      <trkpt lat="44.94304" lon="5.13249">
        <ele>496</ele>
        <time>2020-08-27T13:18:52.32Z</time>
      </trkpt>
      <trkpt lat="44.94306" lon="5.13239">
        <ele>495</ele>
        <time>2020-08-27T13:19:02.80Z</time>
      </trkpt>
      <trkpt lat="44.94304" lon="5.13209">
        <ele>491</ele>
        <time>2020-08-27T13:19:31.97Z</time>
      </trkpt>
      <trkpt lat="44.94325" lon="5.13134">
        <ele>481</ele>
        <time>2020-08-27T13:20:50.04Z</time>
      </trkpt>
      <trkpt lat="44.94324" lon="5.13102">
        <ele>477</ele>
        <time>2020-08-27T13:21:20.18Z</time>
      </trkpt>
      <trkpt lat="44.9432" lon="5.13079">
        <ele>474</ele>
        <time>2020-08-27T13:21:41.84Z</time>
      </trkpt>
      <trkpt lat="44.9431" lon="5.13045">
        <ele>470</ele>
        <time>2020-08-27T13:22:14.95Z</time>
      </trkpt>
      <trkpt lat="44.9429" lon="5.13">
        <ele>464</ele>
        <time>2020-08-27T13:23:01.91Z</time>
      </trkpt>
      <trkpt lat="44.94275" lon="5.1294">
        <ele>457</ele>
        <time>2020-08-27T13:23:53.75Z</time>
      </trkpt>
      <trkpt lat="44.94224" lon="5.12833">
        <ele>445</ele>
        <time>2020-08-27T13:25:31Z</time>
      </trkpt>
      <trkpt lat="44.9417" lon="5.12758">
        <ele>436</ele>
        <time>2020-08-27T13:26:48.95Z</time>
      </trkpt>
      <trkpt lat="44.9415" lon="5.12741">
        <ele>433</ele>
        <time>2020-08-27T13:27:16.56Z</time>
      </trkpt>
      <trkpt lat="44.94073" lon="5.12709">
        <ele>421</ele>
        <time>2020-08-27T13:28:57.95Z</time>
      </trkpt>
      <trkpt lat="44.94044" lon="5.12683">
        <ele>415</ele>
        <time>2020-08-27T13:29:41.74Z</time>
      </trkpt>
      <trkpt lat="44.94007" lon="5.12666">
        <ele>409</ele>
        <time>2020-08-27T13:30:32.47Z</time>
      </trkpt>
      <trkpt lat="44.93998" lon="5.12654">
        <ele>406</ele>
        <time>2020-08-27T13:30:48.75Z</time>
      </trkpt>
      <trkpt lat="44.93994" lon="5.12623">
        <ele>403</ele>
        <time>2020-08-27T13:31:15.42Z</time>
      </trkpt>
      <trkpt lat="44.93989" lon="5.12615">
        <ele>402</ele>
        <time>2020-08-27T13:31:24.72Z</time>
      </trkpt>
      <trkpt lat="44.93954" lon="5.12603">
        <ele>397</ele>
        <time>2020-08-27T13:31:55.41Z</time>
      </trkpt>
      <trkpt lat="44.93863" lon="5.12561">
        <ele>392</ele>
        <time>2020-08-27T13:33:11.79Z</time>
      </trkpt>
      <trkpt lat="44.93826" lon="5.12565">
        <ele>394</ele>
        <time>2020-08-27T13:33:48.07Z</time>
      </trkpt>
      <trkpt lat="44.93816" lon="5.1253">
        <ele>396</ele>
        <time>2020-08-27T13:34:15.09Z</time>
      </trkpt>
      <trkpt lat="44.93806" lon="5.12513">
        <ele>397</ele>
        <time>2020-08-27T13:34:30.21Z</time>
      </trkpt>
      <trkpt lat="44.93797" lon="5.12484">
        <ele>398</ele>
        <time>2020-08-27T13:34:51.08Z</time>
      </trkpt>
      <trkpt lat="44.93792" lon="5.12451">
        <ele>399</ele>
        <time>2020-08-27T13:35:12.07Z</time>
      </trkpt>
      <trkpt lat="44.93784" lon="5.12344">
        <ele>400</ele>
        <time>2020-08-27T13:36:13.13Z</time>
      </trkpt>
      <trkpt lat="44.93786" lon="5.12203">
        <ele>395</ele>
        <time>2020-08-27T13:37:33.19Z</time>
      </trkpt>
      <trkpt lat="44.93791" lon="5.1218">
        <ele>394</ele>
        <time>2020-08-27T13:37:47Z</time>
      </trkpt>
      <trkpt lat="44.93827" lon="5.12088">
        <ele>390</ele>
        <time>2020-08-27T13:38:46.16Z</time>
      </trkpt>
      <trkpt lat="44.93833" lon="5.12029">
        <ele>388</ele>
        <time>2020-08-27T13:39:19.99Z</time>
      </trkpt>
      <trkpt lat="44.93873" lon="5.11915">
        <ele>385</ele>
        <time>2020-08-27T13:40:32.58Z</time>
      </trkpt>
      <trkpt lat="44.93877" lon="5.11868">
        <ele>383</ele>
        <time>2020-08-27T13:40:59.33Z</time>
      </trkpt>
      <trkpt lat="44.93863" lon="5.11741">
        <ele>378</ele>
        <time>2020-08-27T13:42:13.89Z</time>
      </trkpt>
      <trkpt lat="44.9385" lon="5.11692">
        <ele>375</ele>
        <time>2020-08-27T13:42:44.41Z</time>
      </trkpt>
      <trkpt lat="44.93854" lon="5.11632">
        <ele>373</ele>
        <time>2020-08-27T13:43:18.83Z</time>
      </trkpt>
      <trkpt lat="44.93862" lon="5.11635">
        <ele>372</ele>
        <time>2020-08-27T13:43:26.05Z</time>
      </trkpt>
    </trkseg>
  </trk>
</gpx>